WisdomTree ETFs Declare Quarterly Distributions

WisdomTree (Pink Sheets: WSDT) today announced that WisdomTree Trust declared distributions for the following WisdomTree ETFs. Rates are listed below:

Ticker Fund Name Ex-date

Record

Date

Pay Date

Ordinary

Income

ST

Capital

Gains

LT

Capital

Gains

Total

Rate Per

Share

DTD WisdomTree Total Dividend Fund 9/20/2010 9/22/2010 9/24/2010 $ 0.30108 $ 0.00000 $ 0.00000 $ 0.30108
DLN WisdomTree LargeCap Dividend Fund 9/20/2010 9/22/2010 9/24/2010 $ 0.26534 $ 0.00000 $ 0.00000 $ 0.26534
DON WisdomTree MidCap Dividend Fund 9/20/2010 9/22/2010 9/24/2010 $ 0.31007 $ 0.00000 $ 0.00000 $ 0.31007
DES WisdomTree SmallCap Dividend Fund 9/20/2010 9/22/2010 9/24/2010 $ 0.38202 $ 0.00000 $ 0.00000 $ 0.38202
DHS WisdomTree Equity Income Fund 9/20/2010 9/22/2010 9/24/2010 $ 0.20047 $ 0.00000 $ 0.00000 $ 0.20047
DTN WisdomTree Dividend ex-Financials Fund 9/20/2010 9/22/2010 9/24/2010 $ 0.31240 $ 0.00000 $ 0.00000 $ 0.31240
EXT WisdomTree Total Earnings Fund 9/20/2010 9/22/2010 9/24/2010 $ 0.17132 $ 0.00000 $ 0.00000 $ 0.17132
EPS WisdomTree Earnings 500 Fund 9/20/2010 9/22/2010 9/24/2010 $ 0.17460 $ 0.00000 $ 0.00000 $ 0.17460
EZM WisdomTree MidCap Earnings Fund 9/20/2010 9/22/2010 9/24/2010 $ 0.20043 $ 0.00000 $ 0.00000 $ 0.20043
EES WisdomTree SmallCap Earnings Fund 9/20/2010 9/22/2010 9/24/2010 $ 0.10996 $ 0.00000 $ 0.00000 $ 0.10996
EZY WisdomTree LargeCap Value Fund 9/20/2010 9/22/2010 9/24/2010 $ 0.09364 $ 0.00000 $ 0.00000 $ 0.09364
ROI WisdomTree LargeCap Growth Fund 9/20/2010 9/22/2010 9/24/2010 $ 0.05099 $ 0.00000 $ 0.00000 $ 0.05099
DWM WisdomTree DEFA Fund 9/20/2010 9/22/2010 9/24/2010 $ 0.24387 $ 0.00000 $ 0.00000 $ 0.24387
DTH WisdomTree DEFA Equity Income Fund 9/20/2010 9/22/2010 9/24/2010 $ 0.23707 $ 0.00000 $ 0.00000 $ 0.23707
HEDJ WisdomTree International Hedged Equity Fund 9/20/2010 9/22/2010 9/24/2010 $ 0.21377 $ 0.00000 $ 0.00000 $ 0.21377
DOL WisdomTree International LargeCap Dividend Fund 9/20/2010 9/22/2010 9/24/2010 $ 0.22630 $ 0.00000 $ 0.00000 $ 0.22630
DIM WisdomTree International MidCap Dividend Fund 9/20/2010 9/22/2010 9/24/2010 $ 0.27245 $ 0.00000 $ 0.00000 $ 0.27245
DLS WisdomTree International SmallCap Dividend Fund 9/20/2010 9/22/2010 9/24/2010 $ 0.28921 $ 0.00000 $ 0.00000 $ 0.28921
DOO WisdomTree International Dividend ex-Financials Fund 9/20/2010 9/22/2010 9/24/2010 $ 0.28452 $ 0.00000 $ 0.00000 $ 0.28452
DFE WisdomTree Europe SmallCap Dividend Fund 9/20/2010 9/22/2010 9/24/2010 $ 0.16915 $ 0.00000 $ 0.00000 $ 0.16915
DEW WisdomTree Global Equity Income Fund 9/20/2010 9/22/2010 9/24/2010 $ 0.28955 $ 0.00000 $ 0.00000 $ 0.28955
DND WisdomTree Pacific ex-Japan Total Dividend Fund 9/20/2010 9/22/2010 9/24/2010 $ 0.78538 $ 0.00000 $ 0.00000 $ 0.78538
DNH WisdomTree Pacific ex-Japan Equity Income Fund 9/20/2010 9/22/2010 9/24/2010 $ 0.96043 $ 0.00000 $ 0.00000 $ 0.96043
DXJ WisdomTree Japan Hedged Equity Fund 9/20/2010 9/22/2010 9/24/2010 $ 0.00000 $ 0.00000 $ 0.00000 $ 0.00000
DNL WisdomTree World ex-U.S. Growth Fund 9/20/2010 9/22/2010 9/24/2010 $ 0.29212 $ 0.00000 $ 0.00000 $ 0.29212
DFJ WisdomTree Japan SmallCap Dividend Fund 9/20/2010 9/22/2010 9/24/2010 $ 0.05086 $ 0.00000 $ 0.00000 $ 0.05086
DBN WisdomTree International Basic Materials Sector Fund 9/20/2010 9/22/2010 9/24/2010 $ 0.12518 $ 0.00000 $ 0.00000 $ 0.12518
DKA WisdomTree International Energy Sector Fund 9/20/2010 9/22/2010 9/24/2010 $ 0.13506 $ 0.00000 $ 0.00000 $ 0.13506
DBU WisdomTree International Utilities Sector Fund 9/20/2010 9/22/2010 9/24/2010 $ 0.08122 $ 0.00000 $ 0.00000 $ 0.08122
DRW WisdomTree International Real Estate Fund 9/20/2010 9/22/2010 9/24/2010 $ 0.21406 $ 0.00000 $ 0.00000 $ 0.21406
DEM WisdomTree Emerging Markets Equity Income Fund 9/20/2010 9/22/2010 9/24/2010 $ 0.64591 $ 0.00000 $ 0.00000 $ 0.64591
DGS WisdomTree Emerging Markets SmallCap Dividend Fund 9/20/2010 9/22/2010 9/24/2010 $ 0.45179 $ 0.00000 $ 0.00000 $ 0.45179
EPI WisdomTree India Earnings Fund 9/20/2010 9/22/2010 9/24/2010 $ 0.06506 $ 0.00000 $ 0.00000 $ 0.06506
GULF WisdomTree Middle East Dividend Fund 9/20/2010 9/22/2010 9/24/2010 $ 0.02058 $ 0.00000 $ 0.00000 $ 0.02058
EU WisdomTree Dreyfus Euro Fund 9/20/2010 9/22/2010 9/24/2010 $ 0.00000 $ 0.00000 $ 0.00000 $ 0.00000
JYF WisdomTree Dreyfus Japanese Yen Fund 9/20/2010 9/22/2010 9/24/2010 $ 0.00000 $ 0.00000 $ 0.00000 $ 0.00000
ELD WisdomTree Emerging Markets Local Debt Fund 9/20/2010 9/22/2010 9/24/2010 $ 0.20646 $ 0.00000 $ 0.00000 $ 0.20646

About WisdomTree

WisdomTree® is an exchange-traded fund (“ETF”) sponsor and asset manager using its own fundamentally weighted index methodology. WisdomTree also licenses its indexes to third parties for proprietary products and offers a platform to promote the use of WisdomTree ETFs in 401(k) plans. Approximately $8.4 billion in assets currently are managed by WisdomTree or are managed against WisdomTree Indexes. For more information, please visit www.wisdomtree.com. WisdomTree is the marketing name for WisdomTree Investments, Inc. and its wholly owned subsidiaries WisdomTree Asset Management, Inc. and WisdomTree Retirement Services, Inc.

WisdomTree Asset Management, Inc. is a registered investment advisor and is the investment advisor to the WisdomTree Trust and the WisdomTree ETFs. The WisdomTree Trust is a registered open-end investment company. Each WisdomTree ETF is a series of the WisdomTree Trust. WisdomTree Retirement Services, Inc. supports the use of the WisdomTree ETFs in retirement plans by financial professionals.

There are risks associated with investing including possible loss of principal. Foreign investing involves special risks, such as risk of loss from currency fluctuation or political or economic uncertainty. Investments in real estate involve additional special risks, such as credit risk, interest rate fluctuations and the effect of varied economic conditions. Funds that focus its investments in one country increase the impact of events and developments associated with the region which can adversely affect performance. Funds focusing on a single sector and/or smaller companies generally experience greater price volatility. Investments in emerging, offshore or frontier markets are generally less liquid and less efficient than developed markets and are subject to additional risks, such as of adverse governmental regulation and intervention or political developments. Investments in currency involve additional special risks, such as credit risk, interest rate fluctuations, derivative investment risk which can be volatile and may be less liquid than other securities and the effect of varied economic conditions. As these Funds can have a high concentration in some issuers the Funds can be adversely impacted by changes affecting issuers. Fixed income investments are subject to interest rate risk; their value will normally decline as interest rates rise. In addition when interest rates fall income may decline. Fixed income investments are also subject to credit risk, the risk that the issuer of a bond will fail to pay interest and principal in a timely manner, or that negative perceptions of the issuers ability to make such payments will cause the price of that bond to decline. Unlike typical exchange-traded funds, there are no indexes that the Currency Funds or the Emerging Markets Local Debt Fund attempt to track or replicate. Thus, the ability of these Funds to achieve their objectives will depend on the effectiveness of the portfolio manager. Please read the Fund’s prospectus for specific details regarding the Fund’s risk profile.

Investors should consider the investment objectives, risks, charges and expenses of the funds carefully before investing. A prospectus, containing this and other information is available by calling 1-866-909-WISE. Investors should read the prospectus carefully before investing.

WisdomTree Funds are distributed by ALPS Distributors, Inc.

ALPS Distributors, Inc. is not affiliated with Dreyfus.

WIS002740 (9/2011)

Contacts:

Media Contact:
Stuart Bell
WisdomTree Investments, Inc.
(917) 267-3702
sbell@wisdomtree.com
or
WisdomTree Investor Contacts:
KCSA Strategic Communications
Jeffrey Goldberger / Todd Fromer
(212) 896-1249 / (212) 896-1215
jgoldberger@kcsa.com / tfromer@kcsa.com
Stock Market XML and JSON Data API provided by FinancialContent Services, Inc.
Nasdaq quotes delayed at least 15 minutes, all others at least 20 minutes.
Markets are closed on certain holidays. Stock Market Holiday List
By accessing this page, you agree to the following
Privacy Policy and Terms and Conditions.
Press Release Service provided by PRConnect.
Stock quotes supplied by Six Financial
Postage Rates Bots go here